Terminal Aerodrome Forecast
Issued by NWS

Home | Current Version | Previous Version | Text Only | Print | Product List | Glossary On
Versions: 1 2 3 4 5 6 7 8 9 10 11 12 13
000
FTUS42 TJSJ 301125
TAFIST
TAF
TIST 301125Z 3012/3112 08011KT P6SM SCT035 SCT045
     FM301400 11014G23KT P6SM VCSH FEW030 SCT040
     FM302200 07010KT P6SM VCSH SCT028 SCT040=

USA.gov is the U.S. government's official web portal to all federal, state and local government web resources and services.